createdAt,value
2023-01-23T00:01:27.548Z,-0.04
2023-01-23T00:03:54.808Z,-0.03
2023-01-23T00:06:21.851Z,-0.03
2023-01-23T00:08:48.374Z,-0.03
2023-01-23T00:11:25.027Z,-0.03
2023-01-23T00:13:52.405Z,-0.03
2023-01-23T00:16:25.199Z,-0.04
2023-01-23T00:18:52.944Z,-0.05
2023-01-23T00:21:23.258Z,-0.06
2023-01-23T00:23:55.477Z,-0.06
2023-01-23T00:26:24.993Z,-0.07
2023-01-23T00:28:53.934Z,-0.07
2023-01-23T00:31:34.967Z,-0.05
2023-01-23T00:34:04.671Z,-0.05
2023-01-23T00:36:34.669Z,-0.04
2023-01-23T00:39:01.839Z,-0.03
2023-01-23T00:41:28.993Z,-0.01
2023-01-23T00:43:55.540Z,-0.03
2023-01-23T00:46:23.208Z,-0.04
2023-01-23T00:48:50.771Z,-0.05
2023-01-23T00:51:17.511Z,-0.03
2023-01-23T00:53:44.965Z,-0.04
2023-01-23T00:56:12.446Z,-0.05
2023-01-23T00:58:39.097Z,-0.07
2023-01-23T01:01:06.132Z,-0.08
2023-01-23T01:03:32.632Z,-0.08
2023-01-23T01:05:59.412Z,-0.08
2023-01-23T01:08:25.919Z,-0.08
2023-01-23T01:10:52.564Z,-0.09
2023-01-23T01:13:19.565Z,-0.09
2023-01-23T01:15:46.383Z,-0.08
2023-01-23T01:18:13.072Z,-0.11
2023-01-23T01:20:42.143Z,-0.12
2023-01-23T01:23:08.905Z,-0.16
2023-01-23T01:25:36.488Z,-0.17
2023-01-23T01:28:04.106Z,-0.18
2023-01-23T01:30:30.764Z,-0.17
2023-01-23T01:32:57.716Z,-0.17
2023-01-23T01:35:25.178Z,-0.17
2023-01-23T01:37:51.828Z,-0.16
2023-01-23T01:40:21.919Z,-0.16
2023-01-23T01:43:01.389Z,-0.16
2023-01-23T01:46:06.027Z,-0.16
2023-01-23T01:48:42.395Z,-0.14
2023-01-23T01:51:19.916Z,-0.15
2023-01-23T01:53:51.000Z,-0.14
2023-01-23T01:56:19.206Z,-0.15
2023-01-23T01:58:49.351Z,-0.16
2023-01-23T02:01:16.522Z,-0.14
2023-01-23T02:03:44.939Z,-0.14
2023-01-23T02:06:12.271Z,-0.15
2023-01-23T02:08:57.484Z,-0.13
2023-01-23T02:11:24.624Z,-0.11
2023-01-23T02:13:51.192Z,-0.12
2023-01-23T02:16:24.571Z,-0.12
2023-01-23T02:18:54.790Z,-0.12
2023-01-23T02:21:25.233Z,-0.11
2023-01-23T02:24:07.214Z,-0.11
2023-01-23T02:26:36.311Z,-0.11
2023-01-23T02:29:04.509Z,-0.10
2023-01-23T02:31:31.231Z,-0.10
2023-01-23T02:33:59.334Z,-0.11
2023-01-23T02:36:29.351Z,-0.10
2023-01-23T02:39:04.084Z,-0.09
2023-01-23T02:41:40.784Z,-0.12
2023-01-23T02:44:18.557Z,-0.12
2023-01-23T02:46:45.427Z,-0.10
2023-01-23T02:49:11.885Z,-0.09
2023-01-23T02:51:38.678Z,-0.09
2023-01-23T02:54:05.430Z,-0.08
2023-01-23T02:56:31.884Z,-0.06
2023-01-23T02:58:58.689Z,-0.05
2023-01-23T03:01:25.957Z,-0.04
2023-01-23T03:03:52.391Z,-0.04
2023-01-23T03:06:19.631Z,-0.03
2023-01-23T03:08:46.064Z,-0.01
2023-01-23T03:11:13.396Z,0.01
2023-01-23T03:13:40.338Z,0.01
2023-01-23T03:16:07.417Z,0.01
2023-01-23T03:18:40.082Z,0.02
2023-01-23T03:21:12.178Z,0.02
2023-01-23T03:23:41.749Z,-0.00
2023-01-23T03:26:08.292Z,-0.04
2023-01-23T03:28:34.843Z,-0.08
2023-01-23T03:31:01.385Z,-0.11
2023-01-23T03:33:27.917Z,-0.13
2023-01-23T03:35:54.559Z,-0.14
2023-01-23T03:38:21.107Z,-0.14
2023-01-23T03:40:50.418Z,-0.15
2023-01-23T03:43:16.847Z,-0.15
2023-01-23T03:45:43.334Z,-0.15
2023-01-23T03:48:10.047Z,-0.16
2023-01-23T03:50:36.579Z,-0.17
2023-01-23T03:53:03.039Z,-0.19
2023-01-23T03:55:29.487Z,-0.22
2023-01-23T03:57:55.999Z,-0.23
2023-01-23T04:00:22.687Z,-0.23
2023-01-23T04:02:49.658Z,-0.24
2023-01-23T04:05:16.417Z,-0.26
2023-01-23T04:07:42.882Z,-0.28
2023-01-23T04:10:12.705Z,-0.30
2023-01-23T04:12:42.848Z,-0.31
2023-01-23T04:15:10.586Z,-0.31
2023-01-23T04:17:37.546Z,-0.31
2023-01-23T04:20:04.701Z,-0.30
2023-01-23T04:22:31.116Z,-0.29
2023-01-23T04:24:57.571Z,-0.29
2023-01-23T04:27:24.117Z,-0.31
2023-01-23T04:29:50.559Z,-0.31
2023-01-23T04:32:17.400Z,-0.30
2023-01-23T04:34:43.864Z,-0.31
2023-01-23T04:37:10.295Z,-0.32
2023-01-23T04:39:36.826Z,-0.33
2023-01-23T04:42:03.468Z,-0.33
2023-01-23T04:44:30.459Z,-0.32
2023-01-23T04:46:56.885Z,-0.31
2023-01-23T04:49:24.705Z,-0.30
2023-01-23T04:51:52.991Z,-0.29
2023-01-23T04:54:21.091Z,-0.28
2023-01-23T04:56:48.708Z,-0.29
2023-01-23T04:59:15.969Z,-0.30
2023-01-23T05:01:43.064Z,-0.29
2023-01-23T05:04:09.490Z,-0.28
2023-01-23T05:06:36.248Z,-0.26
2023-01-23T05:09:02.761Z,-0.26
2023-01-23T05:11:30.349Z,-0.25
2023-01-23T05:13:56.920Z,-0.23
2023-01-23T05:16:23.410Z,-0.21
2023-01-23T05:18:49.988Z,-0.21
2023-01-23T05:21:16.419Z,-0.21
2023-01-23T05:23:42.838Z,-0.22
2023-01-23T05:26:09.414Z,-0.24
2023-01-23T05:28:35.954Z,-0.24
2023-01-23T05:31:02.550Z,-0.24
2023-01-23T05:33:30.745Z,-0.24
2023-01-23T05:36:00.947Z,-0.25
2023-01-23T05:38:27.533Z,-0.26
2023-01-23T05:40:53.957Z,-0.26
2023-01-23T05:43:20.403Z,-0.27
2023-01-23T05:45:47.069Z,-0.28
2023-01-23T05:48:13.513Z,-0.29
2023-01-23T05:50:40.648Z,-0.30
2023-01-23T05:53:07.154Z,-0.29
2023-01-23T05:55:33.741Z,-0.29
2023-01-23T05:58:00.279Z,-0.30
2023-01-23T06:00:26.918Z,-0.30
2023-01-23T06:02:53.383Z,-0.28
2023-01-23T06:05:20.346Z,-0.28
2023-01-23T06:07:46.861Z,-0.26
2023-01-23T06:10:13.635Z,-0.24
2023-01-23T06:12:40.046Z,-0.25
2023-01-23T06:15:07.182Z,-0.25
2023-01-23T06:17:34.094Z,-0.26
2023-01-23T06:20:00.891Z,-0.26
2023-01-23T06:22:27.428Z,-0.24
2023-01-23T06:24:53.972Z,-0.25
2023-01-23T06:27:20.509Z,-0.23
2023-01-23T06:29:47.352Z,-0.23
2023-01-23T06:32:13.829Z,-0.20
2023-01-23T06:34:40.265Z,-0.16
2023-01-23T06:37:06.836Z,-0.11
2023-01-23T06:39:33.413Z,-0.09
2023-01-23T06:42:00.149Z,-0.07
2023-01-23T06:44:26.689Z,-0.06
2023-01-23T06:46:53.433Z,-0.06
2023-01-23T06:49:19.983Z,-0.04
2023-01-23T06:51:46.402Z,-0.00
2023-01-23T06:54:12.871Z,0.02
2023-01-23T06:56:39.409Z,0.02
2023-01-23T06:59:07.153Z,0.04
2023-01-23T07:01:33.690Z,0.07
2023-01-23T07:04:00.853Z,0.09
2023-01-23T07:06:27.390Z,0.11
2023-01-23T07:08:53.929Z,0.14
2023-01-23T07:11:20.335Z,0.17
2023-01-23T07:13:46.731Z,0.18
2023-01-23T07:16:13.270Z,0.18
2023-01-23T07:18:39.916Z,0.18
2023-01-23T07:21:06.759Z,0.19
2023-01-23T07:23:34.520Z,0.20
2023-01-23T07:26:03.495Z,0.24
2023-01-23T07:28:31.245Z,0.29
2023-01-23T07:30:59.044Z,0.32
2023-01-23T07:33:25.737Z,0.34
2023-01-23T07:35:52.294Z,0.39
2023-01-23T07:38:18.737Z,0.43
2023-01-23T07:40:45.336Z,0.45
2023-01-23T07:43:12.117Z,0.45
2023-01-23T07:45:38.732Z,0.48
2023-01-23T07:48:05.174Z,0.52
2023-01-23T07:50:31.665Z,0.60
2023-01-23T07:52:58.183Z,0.66
2023-01-23T07:55:24.745Z,0.68
2023-01-23T07:57:51.186Z,0.65
2023-01-23T08:00:18.621Z,0.63
2023-01-23T08:02:45.297Z,0.62
2023-01-23T08:05:11.835Z,0.64
2023-01-23T08:07:38.275Z,0.65
2023-01-23T08:10:05.636Z,0.66
2023-01-23T08:12:32.171Z,0.68
2023-01-23T08:14:58.708Z,0.68
2023-01-23T08:17:25.142Z,0.69
2023-01-23T08:19:53.535Z,0.71
2023-01-23T08:22:20.098Z,0.79
2023-01-23T08:24:46.611Z,0.87
2023-01-23T08:27:13.373Z,0.94
2023-01-23T08:29:40.131Z,0.99
2023-01-23T08:32:06.667Z,1.06
2023-01-23T08:34:33.525Z,1.11
2023-01-23T08:37:00.075Z,1.14
2023-01-23T08:39:26.536Z,1.09
2023-01-23T08:41:53.085Z,0.99
2023-01-23T08:44:19.657Z,0.94
2023-01-23T08:46:46.561Z,0.94
2023-01-23T08:49:13.663Z,0.95
2023-01-23T08:51:40.151Z,1.05
2023-01-23T08:54:06.617Z,1.14
2023-01-23T08:56:33.055Z,1.20
2023-01-23T08:58:59.630Z,1.21
2023-01-23T09:01:26.994Z,1.25
2023-01-23T09:03:53.829Z,1.29
2023-01-23T09:06:22.513Z,1.36
2023-01-23T09:08:49.156Z,1.37
2023-01-23T09:11:16.413Z,1.35
2023-01-23T09:13:42.955Z,1.34
2023-01-23T09:16:09.944Z,1.38
2023-01-23T09:18:36.962Z,1.43
2023-01-23T09:21:12.871Z,1.45
2023-01-23T09:23:39.394Z,1.50
2023-01-23T09:26:08.043Z,1.53
2023-01-23T09:28:39.105Z,1.54
2023-01-23T09:31:08.217Z,1.61
2023-01-23T09:33:35.872Z,1.68
2023-01-23T09:36:03.951Z,1.72
2023-01-23T09:38:31.313Z,1.77
2023-01-23T09:40:58.879Z,1.81
2023-01-23T09:43:39.946Z,1.82
2023-01-23T09:46:28.300Z,1.81
2023-01-23T09:49:04.057Z,1.82
2023-01-23T09:52:12.471Z,1.78
2023-01-23T09:54:44.398Z,1.73
2023-01-23T09:57:51.604Z,1.69
2023-01-23T10:00:27.145Z,1.66
2023-01-23T10:02:55.102Z,1.62
2023-01-23T10:05:31.469Z,1.58
2023-01-23T10:08:20.743Z,1.58
2023-01-23T10:10:47.247Z,1.63
2023-01-23T10:13:18.503Z,1.68
2023-01-23T10:16:04.593Z,1.76
2023-01-23T10:18:37.104Z,1.76
2023-01-23T10:21:51.451Z,1.74
2023-01-23T10:24:45.708Z,1.72
2023-01-23T10:27:43.512Z,1.69
2023-01-23T10:30:22.185Z,1.64
2023-01-23T10:32:58.411Z,1.60
2023-01-23T10:35:52.737Z,1.60
2023-01-23T10:38:43.394Z,1.63
2023-01-23T10:41:12.010Z,1.65
2023-01-23T10:43:38.829Z,1.68
2023-01-23T10:46:14.442Z,1.69
2023-01-23T10:48:42.878Z,1.73
2023-01-23T10:51:38.456Z,1.80
2023-01-23T10:54:25.995Z,1.85
2023-01-23T10:56:58.308Z,1.88
2023-01-23T10:59:35.610Z,1.88
2023-01-23T11:02:13.296Z,1.87
2023-01-23T11:04:44.041Z,1.87
2023-01-23T11:07:17.240Z,1.82
2023-01-23T11:09:58.707Z,1.82
2023-01-23T11:12:31.111Z,1.85
2023-01-23T11:15:22.670Z,1.91
2023-01-23T11:17:50.404Z,1.91
2023-01-23T11:20:29.727Z,1.87
2023-01-23T11:23:03.916Z,1.87
2023-01-23T11:25:32.273Z,1.91
2023-01-23T11:28:18.543Z,1.98
2023-01-23T11:30:50.392Z,2.05
2023-01-23T11:33:26.994Z,2.11
2023-01-23T11:36:06.979Z,2.17
2023-01-23T11:38:52.568Z,2.20
2023-01-23T11:41:27.051Z,2.25
2023-01-23T11:43:53.683Z,2.31
2023-01-23T11:46:58.110Z,2.35
2023-01-23T11:49:31.974Z,2.38
2023-01-23T11:52:21.288Z,2.39
2023-01-23T11:55:11.355Z,2.38
2023-01-23T11:57:57.833Z,2.30
2023-01-23T12:00:46.887Z,2.23
2023-01-23T12:03:44.506Z,2.15
2023-01-23T12:06:20.631Z,2.13
2023-01-23T12:09:05.790Z,2.11
2023-01-23T12:11:42.199Z,2.05
2023-01-23T12:14:21.125Z,2.02
2023-01-23T12:17:26.167Z,2.05
2023-01-23T12:20:03.048Z,2.04
2023-01-23T12:22:48.981Z,1.99
2023-01-23T12:25:39.031Z,2.01
2023-01-23T12:28:25.005Z,2.07
2023-01-23T12:31:30.112Z,2.12
2023-01-23T12:33:56.844Z,2.10
2023-01-23T12:36:59.482Z,2.06
2023-01-23T12:39:59.786Z,2.04
2023-01-23T12:42:38.976Z,2.00
2023-01-23T12:45:11.299Z,2.04
2023-01-23T12:47:44.631Z,2.09
2023-01-23T12:50:15.657Z,2.13
2023-01-23T12:52:49.474Z,2.10
2023-01-23T12:55:15.902Z,1.98
2023-01-23T12:57:59.854Z,1.83
2023-01-23T13:00:36.259Z,1.75
2023-01-23T13:03:44.999Z,1.70
2023-01-23T13:06:47.450Z,1.73
2023-01-23T13:09:42.477Z,1.77
2023-01-23T13:12:20.984Z,1.79
2023-01-23T13:15:13.886Z,1.80
2023-01-23T13:17:39.930Z,1.84
2023-01-23T13:20:32.521Z,1.84
2023-01-23T13:23:29.373Z,1.83
2023-01-23T13:26:17.564Z,1.81
2023-01-23T13:28:46.769Z,1.78
2023-01-23T13:31:42.365Z,1.73
2023-01-23T13:34:18.164Z,1.67
2023-01-23T13:36:49.321Z,1.65
2023-01-23T13:39:18.747Z,1.63
2023-01-23T13:41:47.120Z,1.62
2023-01-23T13:44:40.394Z,1.59
2023-01-23T14:22:56.680Z,1.07
2023-01-23T14:25:23.704Z,1.06
2023-01-23T14:28:03.004Z,1.06
2023-01-23T14:30:29.544Z,1.07
2023-01-23T14:32:56.407Z,1.08
2023-01-23T14:35:31.597Z,1.09
2023-01-23T14:38:01.660Z,1.08
2023-01-23T14:40:35.144Z,1.08
2023-01-23T14:43:09.091Z,1.07
2023-01-23T14:45:37.751Z,1.06
2023-01-23T14:48:07.721Z,1.04
2023-01-23T14:50:35.002Z,1.03
2023-01-23T14:53:15.196Z,1.03
2023-01-23T14:55:46.073Z,1.01
2023-01-23T14:58:22.349Z,0.98
2023-01-23T15:00:49.940Z,0.97
2023-01-23T15:03:41.136Z,0.95
2023-01-23T15:06:12.406Z,0.92
2023-01-23T15:08:39.371Z,0.89
2023-01-23T15:11:06.603Z,0.87
2023-01-23T15:13:42.324Z,0.86
2023-01-23T15:16:21.463Z,0.84
2023-01-23T15:19:32.732Z,0.81
2023-01-23T15:22:29.895Z,0.81
2023-01-23T15:24:56.963Z,0.82
2023-01-23T15:27:23.452Z,0.82
2023-01-23T15:29:49.892Z,0.83
2023-01-23T15:32:23.528Z,0.83
2023-01-23T15:34:57.002Z,0.82
2023-01-23T15:37:26.254Z,0.81
2023-01-23T15:40:03.422Z,0.83
2023-01-23T15:42:33.516Z,0.83
2023-01-23T15:45:00.629Z,0.83
2023-01-23T15:47:31.341Z,0.82
2023-01-23T15:49:59.437Z,0.82
2023-01-23T15:52:47.502Z,0.81
2023-01-23T15:55:15.300Z,0.82
2023-01-23T15:57:42.581Z,0.82
2023-01-23T16:00:18.053Z,0.81
2023-01-23T16:02:56.243Z,0.79
2023-01-23T16:05:26.058Z,0.78
2023-01-23T16:07:55.139Z,0.78
2023-01-23T16:10:21.475Z,0.77
2023-01-23T16:12:50.776Z,0.77
2023-01-23T16:15:19.826Z,0.78
2023-01-23T16:17:47.400Z,0.78
2023-01-23T16:20:19.604Z,0.80
2023-01-23T16:22:54.764Z,0.80
2023-01-23T16:25:43.345Z,0.80
2023-01-23T16:28:18.671Z,0.81
2023-01-23T16:30:46.447Z,0.80
2023-01-23T16:33:13.201Z,0.79
2023-01-23T16:35:40.944Z,0.78
2023-01-23T16:38:07.817Z,0.78
2023-01-23T16:40:34.754Z,0.76
2023-01-23T16:43:01.798Z,0.74
2023-01-23T16:45:31.194Z,0.74
2023-01-23T16:47:58.016Z,0.73
2023-01-23T16:50:35.275Z,0.72
2023-01-23T16:53:07.506Z,0.71
2023-01-23T16:55:38.483Z,0.71
2023-01-23T16:58:06.958Z,0.70
2023-01-23T17:00:36.068Z,0.70
2023-01-23T17:03:08.047Z,0.72
2023-01-23T17:05:34.491Z,0.72
2023-01-23T17:08:02.281Z,0.72
2023-01-23T17:10:41.173Z,0.72
2023-01-23T17:13:11.771Z,0.71
2023-01-23T17:15:38.840Z,0.73
2023-01-23T17:18:05.775Z,0.75
2023-01-23T17:20:32.824Z,0.78
2023-01-23T17:22:59.359Z,0.76
2023-01-23T17:25:27.037Z,0.74
2023-01-23T17:28:11.659Z,0.75
2023-01-23T17:30:40.378Z,0.77
2023-01-23T17:33:17.150Z,0.76
2023-01-23T17:35:44.649Z,0.79
2023-01-23T17:38:16.542Z,0.79
2023-01-23T17:40:42.993Z,0.78
2023-01-23T17:43:12.366Z,0.76
2023-01-23T17:45:39.983Z,0.78
2023-01-23T17:48:13.008Z,0.77
2023-01-23T17:50:42.696Z,0.76
2023-01-23T17:53:14.686Z,0.75
2023-01-23T17:55:42.534Z,0.74
2023-01-23T17:58:09.940Z,0.74
2023-01-23T18:00:38.508Z,0.76
2023-01-23T18:03:06.782Z,0.75
2023-01-23T18:05:33.395Z,0.74
2023-01-23T18:08:00.045Z,0.74
2023-01-23T18:10:27.309Z,0.75
2023-01-23T18:13:40.537Z,0.73
2023-01-23T18:16:23.205Z,0.72
2023-01-23T18:19:00.591Z,0.71
2023-01-23T18:21:27.904Z,0.72
2023-01-23T18:23:55.194Z,0.72
2023-01-23T18:26:43.108Z,0.73
2023-01-23T18:29:31.667Z,0.73
2023-01-23T18:32:20.320Z,0.72
2023-01-23T18:34:55.459Z,0.72
2023-01-23T18:37:47.389Z,0.72
2023-01-23T18:40:44.921Z,0.74
2023-01-23T18:43:33.127Z,0.73
2023-01-23T18:45:59.933Z,0.72
2023-01-23T18:48:26.699Z,0.72
2023-01-23T18:51:15.054Z,0.73
2023-01-23T18:53:50.675Z,0.74
2023-01-23T18:56:42.748Z,0.73
2023-01-23T18:59:38.422Z,0.75
2023-01-23T19:02:37.265Z,0.76
2023-01-23T19:05:33.723Z,0.76
2023-01-23T19:08:01.389Z,0.76
2023-01-23T19:10:40.137Z,0.77
2023-01-23T19:13:24.971Z,0.77
2023-01-23T19:16:22.355Z,0.77
2023-01-23T19:19:10.731Z,0.78
2023-01-23T19:21:42.459Z,0.78
2023-01-23T19:24:09.506Z,0.77
2023-01-23T19:26:39.137Z,0.76
2023-01-23T19:29:20.995Z,0.75
2023-01-23T19:32:04.133Z,0.74
2023-01-23T19:34:33.299Z,0.75
2023-01-23T19:36:59.757Z,0.77
2023-01-23T19:39:26.320Z,0.78
2023-01-23T19:41:52.849Z,0.77
2023-01-23T19:44:21.149Z,0.76
2023-01-23T19:46:47.718Z,0.75
2023-01-23T19:49:14.299Z,0.74
2023-01-23T19:51:41.811Z,0.74
2023-01-23T19:54:10.999Z,0.75
2023-01-23T19:56:37.541Z,0.74
2023-01-23T19:59:04.024Z,0.73
2023-01-23T20:01:33.687Z,0.74
2023-01-23T20:04:01.043Z,0.74
2023-01-23T20:06:27.908Z,0.76
2023-01-23T20:08:54.467Z,0.77
2023-01-23T20:11:21.179Z,0.77
2023-01-23T20:13:47.629Z,0.77
2023-01-23T20:16:17.625Z,0.76
2023-01-23T20:18:45.376Z,0.74
2023-01-23T20:21:11.949Z,0.72
2023-01-23T20:23:38.574Z,0.69
2023-01-23T20:26:05.200Z,0.67
2023-01-23T20:28:32.136Z,0.66
2023-01-23T20:31:10.833Z,0.64
2023-01-23T20:33:38.373Z,0.62
2023-01-23T20:36:09.140Z,0.61
2023-01-23T20:38:35.537Z,0.60
2023-01-23T20:41:10.793Z,0.60
2023-01-23T20:43:37.453Z,0.59
2023-01-23T20:46:07.992Z,0.58
2023-01-23T20:48:38.977Z,0.59
2023-01-23T20:51:08.684Z,0.62
2023-01-23T20:53:37.531Z,0.65
2023-01-23T20:56:08.276Z,0.67
2023-01-23T20:58:36.878Z,0.72
2023-01-23T21:01:03.830Z,0.76
2023-01-23T21:03:30.338Z,0.77
2023-01-23T21:05:57.443Z,0.77
2023-01-23T21:08:24.035Z,0.75
2023-01-23T21:10:50.715Z,0.72
2023-01-23T21:13:17.315Z,0.70
2023-01-23T21:15:44.397Z,0.69
2023-01-23T21:18:11.010Z,0.67
2023-01-23T21:20:39.312Z,0.65
2023-01-23T21:23:06.534Z,0.64
2023-01-23T21:25:35.509Z,0.63
2023-01-23T21:28:02.085Z,0.63
2023-01-23T21:30:28.578Z,0.61
2023-01-23T21:32:55.268Z,0.60
2023-01-23T21:35:21.978Z,0.60
2023-01-23T21:37:48.741Z,0.63
2023-01-23T21:40:15.430Z,0.64
2023-01-23T21:42:42.038Z,0.65
2023-01-23T21:45:09.081Z,0.68
2023-01-23T21:47:35.637Z,0.73
2023-01-23T21:50:02.178Z,0.77
2023-01-23T21:52:28.568Z,0.82
2023-01-23T21:54:56.727Z,0.83
2023-01-23T21:57:23.373Z,0.81
2023-01-23T21:59:49.869Z,0.81
2023-01-23T22:02:16.347Z,0.79
2023-01-23T22:04:42.789Z,0.79
2023-01-23T22:07:09.391Z,0.80
2023-01-23T22:09:35.854Z,0.82
2023-01-23T22:12:02.369Z,0.84
2023-01-23T22:14:29.008Z,0.86
2023-01-23T22:16:55.547Z,0.88
2023-01-23T22:19:25.527Z,0.89
2023-01-23T22:21:55.793Z,0.88
2023-01-23T22:24:22.509Z,0.87
2023-01-23T22:26:49.600Z,0.88
2023-01-23T22:29:16.066Z,0.87
2023-01-23T22:31:43.133Z,0.87
2023-01-23T22:34:09.933Z,0.88
2023-01-23T22:36:36.779Z,0.86
2023-01-23T22:39:03.407Z,0.84
2023-01-23T22:41:29.841Z,0.82
2023-01-23T22:43:57.479Z,0.80
2023-01-23T22:46:23.977Z,0.79
2023-01-23T22:48:51.014Z,0.79
2023-01-23T22:51:27.964Z,0.82
2023-01-23T22:53:55.815Z,0.84
2023-01-23T22:56:23.708Z,0.85
2023-01-23T22:58:51.931Z,0.86
2023-01-23T23:01:19.559Z,0.86
2023-01-23T23:03:46.710Z,0.86
2023-01-23T23:06:16.029Z,0.86
2023-01-23T23:08:45.122Z,0.85
2023-01-23T23:11:19.896Z,0.84
2023-01-23T23:13:46.941Z,0.84
2023-01-23T23:16:22.605Z,0.84
2023-01-23T23:18:52.308Z,0.83
2023-01-23T23:21:22.096Z,0.84
2023-01-23T23:23:48.809Z,0.84
2023-01-23T23:26:16.024Z,0.84
2023-01-23T23:28:42.988Z,0.86
2023-01-23T23:31:10.576Z,0.86
2023-01-23T23:33:37.676Z,0.84
2023-01-23T23:36:05.066Z,0.83
2023-01-23T23:38:31.685Z,0.83
2023-01-23T23:41:01.932Z,0.84
2023-01-23T23:43:28.845Z,0.85
2023-01-23T23:45:57.506Z,0.85
2023-01-23T23:48:25.343Z,0.86
2023-01-23T23:50:52.063Z,0.85
2023-01-23T23:53:18.806Z,0.86
2023-01-23T23:55:45.875Z,0.85
2023-01-23T23:58:13.010Z,0.86
